Time;durP1;ratioP1;P1;durP2;ratioP2;P2;SDS_P1;SDS_P2;PMS_P1;PMS_P2;Temp;Humidity;BMP_temperature;BMP_pressure;BME280_temperature;BME280_humidity;BME280_pressure;Samples;Min_cycle;Max_cycle;Signal;HPM_P1;HPM_P2
2023/01/07 00:01:51;;;;;;;4.22;3.17;;;;;;;7.88;100.00;98413.58;1762392;81;21058;-76
2023/01/07 00:04:20;;;;;;;3.10;2.37;;;;;;;7.89;100.00;98411.97;1762255;81;20989;-79
2023/01/07 00:06:48;;;;;;;3.65;2.50;;;;;;;7.90;100.00;98415.48;1762598;81;28100;-76
2023/01/07 00:09:17;;;;;;;4.40;2.87;;;;;;;7.96;100.00;98417.72;1762540;81;20974;-79
2023/01/07 00:11:44;;;;;;;4.75;2.60;;;;;;;7.91;100.00;98412.53;1762567;81;20997;-78
2023/01/07 00:14:12;;;;;;;4.12;2.45;;;;;;;7.92;100.00;98420.91;1762398;81;20989;-79
2023/01/07 00:16:39;;;;;;;5.65;3.33;;;;;;;7.92;100.00;98420.91;1762397;81;21037;-76
2023/01/07 00:19:07;;;;;;;6.45;3.58;;;;;;;8.01;100.00;98429.91;1762250;81;20996;-79
2023/01/07 00:21:34;;;;;;;4.08;2.77;;;;;;;8.02;100.00;98430.17;1762428;81;21013;-76
2023/01/07 00:24:03;;;;;;;5.40;3.70;;;;;;;8.03;100.00;98434.00;1762188;81;20997;-76
2023/01/07 00:26:35;;;;;;;5.50;3.33;;;;;;;8.03;100.00;98435.34;1762487;81;21116;-78
2023/01/07 00:29:03;;;;;;;4.85;2.83;;;;;;;8.04;100.00;98432.11;1762210;81;21735;-78
2023/01/07 00:31:34;;;;;;;3.62;2.22;;;;;;;8.00;100.00;98426.39;1762316;81;21053;-76
2023/01/07 00:36:30;;;;;;;4.85;4.00;;;;;;;8.08;100.00;98433.22;1762495;81;20997;-78
2023/01/07 00:38:59;;;;;;;4.90;2.83;;;;;;;8.06;100.00;98440.77;1762234;81;20982;-76
2023/01/07 00:41:26;;;;;;;;;;;;;;;8.03;100.00;98442.09;1765138;81;21112;-76
2023/01/07 00:43:53;;;;;;;11.38;5.95;;;;;;;8.01;100.00;98447.44;1762149;81;20889;-78
2023/01/07 00:46:20;;;;;;;5.90;4.37;;;;;;;8.02;100.00;98444.48;1762419;81;21094;-78
2023/01/07 00:48:47;;;;;;;4.65;3.27;;;;;;;7.98;100.00;98447.42;1762245;81;21005;-76
2023/01/07 00:51:15;;;;;;;4.47;3.10;;;;;;;8.00;100.00;98447.16;1762550;81;21083;-76
2023/01/07 00:53:42;;;;;;;5.42;3.60;;;;;;;8.01;100.00;98451.49;1764196;81;21353;-76
2023/01/07 00:56:10;;;;;;;5.70;3.45;;;;;;;7.98;100.00;98451.47;1765542;81;21506;-76
2023/01/07 00:58:37;;;;;;;5.22;3.25;;;;;;;7.97;100.00;98451.19;1762161;81;20989;-77
2023/01/07 01:01:04;;;;;;;4.40;2.58;;;;;;;7.97;100.00;98450.38;1762066;81;21044;-76
2023/01/07 01:03:31;;;;;;;4.53;2.70;;;;;;;7.96;100.00;98455.50;1762210;81;21080;-78
2023/01/07 01:06:08;;;;;;;6.03;4.37;;;;;;;7.95;100.00;98464.13;1762432;81;22296;-76
2023/01/07 01:08:35;;;;;;;6.15;4.22;;;;;;;7.95;100.00;98464.63;1760709;81;21025;-78
2023/01/07 01:11:05;;;;;;;8.73;6.20;;;;;;;7.94;100.00;98474.61;1762525;81;21017;-76
2023/01/07 01:13:32;;;;;;;5.65;4.58;;;;;;;7.91;100.00;98471.08;1761293;81;21017;-78
2023/01/07 01:15:59;;;;;;;9.95;4.95;;;;;;;7.89;100.00;98470.52;1762531;81;21068;-76
2023/01/07 01:18:26;;;;;;;5.42;3.47;;;;;;;7.89;100.00;98470.52;1762326;81;21160;-78
2023/01/07 01:20:53;;;;;;;6.67;4.67;;;;;;;7.91;100.00;98475.13;1762532;81;22089;-79
2023/01/07 01:23:21;;;;;;;9.03;4.90;;;;;;;7.84;100.00;98472.61;1762049;81;21013;-76
2023/01/07 01:25:47;;;;;;;8.88;5.55;;;;;;;7.90;100.00;98478.89;1762408;81;22134;-78
2023/01/07 01:28:14;;;;;;;8.28;5.28;;;;;;;7.87;100.00;98474.83;1762309;81;20966;-78
2023/01/07 01:30:41;;;;;;;9.90;6.15;;;;;;;7.85;100.00;98469.37;1762407;81;21906;-78
2023/01/07 01:33:08;;;;;;;10.20;4.80;;;;;;;7.82;100.00;98469.36;1762252;81;21048;-76
2023/01/07 01:35:40;;;;;;;6.08;4.47;;;;;;;7.81;100.00;98469.08;1762564;81;20997;-76
2023/01/07 01:38:07;;;;;;;7.65;4.33;;;;;;;7.79;100.00;98473.09;1762243;81;21033;-76
2023/01/07 01:40:34;;;;;;;8.08;4.85;;;;;;;7.79;100.00;98467.70;1762624;81;21052;-78
2023/01/07 01:43:01;;;;;;;7.08;4.22;;;;;;;7.79;100.00;98464.47;1762429;81;21175;-79
2023/01/07 01:45:28;;;;;;;8.88;5.12;;;;;;;7.77;100.00;98460.37;1762354;81;21502;-78
2023/01/07 01:48:04;;;;;;;8.65;6.78;;;;;;;7.78;100.00;98465.54;1762467;81;21068;-79
2023/01/07 01:50:42;;;;;;;8.10;5.83;;;;;;;7.77;100.00;98473.32;1762513;81;21010;-78
2023/01/07 01:53:22;;;;;;;6.50;4.03;;;;;;;7.75;100.00;98472.77;1763053;81;21055;-76
2023/01/07 01:56:10;;;;;;;10.25;7.00;;;;;;;7.76;100.00;98470.34;1719586;82;21709;-76
2023/01/07 01:58:44;;;;;;;10.53;5.70;;;;;;;7.75;100.00;98469.25;1764562;81;20955;-79
2023/01/07 02:01:11;;;;;;;11.35;5.60;;;;;;;7.72;100.00;98462.48;1732664;82;21004;-78
2023/01/07 02:03:38;;;;;;;11.45;5.78;;;;;;;7.75;100.00;98461.97;1764338;81;20987;-77
2023/01/07 02:06:06;;;;;;;7.85;5.47;;;;;;;7.73;100.00;98459.25;1732943;82;21068;-79
2023/01/07 02:08:33;;;;;;;10.18;5.65;;;;;;;7.75;100.00;98457.11;1764438;81;21500;-79
2023/01/07 02:11:14;;;;;;;8.28;5.05;;;;;;;7.76;100.00;98454.70;1732823;82;21001;-76
2023/01/07 02:14:21;;;;;;;8.35;5.40;;;;;;;7.76;100.00;98454.70;1714764;81;21004;-78
2023/01/07 02:17:30;;;;;;;9.75;6.83;;;;;;;7.72;100.00;98450.88;1764052;81;21054;-76
2023/01/07 02:20:30;;;;;;;9.58;6.62;;;;;;;7.73;100.00;98443.06;1726879;82;20988;-78
2023/01/07 02:23:18;;;;;;;11.55;6.78;;;;;;;7.74;100.00;98454.14;1764606;81;21006;-77
2023/01/07 02:26:00;;;;;;;10.82;6.40;;;;;;;7.73;100.00;98453.86;1764952;81;20965;-76
2023/01/07 02:28:41;;;;;;;9.93;5.83;;;;;;;7.71;100.00;98458.70;1764911;81;21044;-76
2023/01/07 02:31:45;;;;;;;8.90;4.90;;;;;;;7.69;100.00;98452.71;1763451;81;21012;-78
2023/01/07 02:34:27;;;;;;;9.28;6.47;;;;;;;7.66;100.00;98458.08;1764890;81;20973;-78
2023/01/07 02:37:17;;;;;;;10.55;5.35;;;;;;;7.65;100.00;98457.80;1764978;81;21056;-76
2023/01/07 02:40:01;;;;;;;11.03;6.03;;;;;;;7.63;100.00;98459.94;1764897;81;21004;-76
2023/01/07 02:42:58;;;;;;;9.95;6.78;;;;;;;7.63;100.00;98458.59;1765016;81;21048;-76
2023/01/07 02:45:31;;;;;;;11.33;6.53;;;;;;;7.61;100.00;98462.89;1762107;81;20970;-78
2023/01/07 02:48:08;;;;;;;11.35;7.05;;;;;;;7.60;100.00;98455.84;1765128;81;21422;-76
2023/01/07 02:50:35;;;;;;;8.48;5.70;;;;;;;7.62;100.00;98454.27;1765138;81;21376;-78
2023/01/07 02:53:03;;;;;;;10.03;5.85;;;;;;;7.63;100.00;98460.75;1762970;81;20988;-78
2023/01/07 02:56:13;;;;;;;9.95;6.62;;;;;;;7.63;100.00;98455.89;1769037;81;21074;-76
2023/01/07 02:59:14;;;;;;;9.43;7.58;;;;;;;7.63;100.00;98459.94;1779647;80;21000;-76
2023/01/07 03:02:23;;;;;;;21.77;17.60;;;;;;;7.61;100.00;98458.84;1749206;81;21034;-78
2023/01/07 03:04:58;;;;;;;15.93;10.35;;;;;;;7.60;100.00;98459.07;1761405;81;21183;-76
2023/01/07 03:07:36;;;;;;;18.87;14.38;;;;;;;7.55;100.00;98465.77;1761466;81;21099;-78
2023/01/07 03:10:26;;;;;;;25.00;20.65;;;;;;;7.57;100.00;98467.14;1760924;81;21075;-78
2023/01/07 03:13:06;;;;;;;29.65;23.18;;;;;;;7.57;100.00;98472.53;1761506;81;21460;-78
2023/01/07 03:15:38;;;;;;;18.98;8.95;;;;;;;7.57;100.00;98477.11;1724754;81;21086;-78
2023/01/07 03:18:18;;;;;;;12.43;8.15;;;;;;;7.55;100.00;98476.02;1761422;81;21531;-76
2023/01/07 03:20:47;;;;;;;12.18;7.33;;;;;;;7.55;100.00;98473.86;1761473;81;21484;-78
2023/01/07 03:23:14;;;;;;;12.85;8.78;;;;;;;7.52;100.00;98464.89;1761489;81;21479;-79
2023/01/07 03:25:45;;;;;;;12.65;8.90;;;;;;;7.52;100.00;98471.13;1761487;81;21079;-78
2023/01/07 03:28:15;;;;;;;10.95;7.85;;;;;;;7.52;100.00;98462.20;1731408;81;21022;-78
2023/01/07 03:30:42;;;;;;;12.78;9.05;;;;;;;7.52;100.00;98463.55;1761188;81;21758;-76
2023/01/07 03:33:17;;;;;;;13.88;9.18;;;;;;;7.49;100.00;98467.56;1761274;81;20977;-76
2023/01/07 03:35:46;;;;;;;12.15;8.35;;;;;;;7.49;100.00;98470.80;1731216;81;21031;-78
2023/01/07 03:38:13;;;;;;;;;;;;;;;7.48;100.00;98474.56;1763956;81;21055;-78
2023/01/07 03:40:40;;;;;;;11.30;7.67;;;;;;;7.46;100.00;98469.95;1761535;81;20503;-78
2023/01/07 03:43:14;;;;;;;12.93;8.25;;;;;;;7.44;100.00;98474.78;1761200;81;21027;-78
2023/01/07 03:45:41;;;;;;;16.82;9.78;;;;;;;7.37;100.00;98470.09;1761322;81;21471;-78
2023/01/07 03:48:08;;;;;;;16.67;9.18;;;;;;;7.35;100.00;98469.00;1761327;81;20976;-79
2023/01/07 03:50:35;;;;;;;12.15;7.75;;;;;;;7.33;100.00;98469.23;1761358;81;21018;-76
2023/01/07 03:53:02;;;;;;;20.35;13.15;;;;;;;7.33;100.00;98461.14;1758542;81;21051;-78
2023/01/07 03:55:29;;;;;;;21.85;13.83;;;;;;;7.31;100.00;98461.92;1736462;81;21116;-76
2023/01/07 03:57:56;;;;;;;21.97;15.83;;;;;;;7.24;100.00;98462.63;1761250;81;21008;-76
2023/01/07 04:00:23;;;;;;;21.65;15.75;;;;;;;7.16;100.00;98464.92;1761553;81;21258;-76
2023/01/07 04:02:50;;;;;;;21.85;14.50;;;;;;;7.10;100.00;98466.74;1761351;81;21070;-76
2023/01/07 04:05:17;;;;;;;22.77;17.00;;;;;;;6.99;100.00;98464.39;1761685;81;21074;-78
2023/01/07 04:07:44;;;;;;;19.77;14.35;;;;;;;6.94;100.00;98464.87;1761387;81;21868;-78
2023/01/07 04:10:11;;;;;;;17.55;12.55;;;;;;;6.90;100.00;98461.83;1761469;81;21066;-77
2023/01/07 04:12:38;;;;;;;31.68;18.25;;;;;;;6.83;100.00;98457.66;1761365;81;21047;-78
2023/01/07 04:15:06;;;;;;;36.13;25.43;;;;;;;6.78;100.00;98465.14;1761524;81;21455;-76
2023/01/07 04:17:33;;;;;;;39.48;32.23;;;;;;;6.74;100.00;98468.84;1761660;81;21019;-78
2023/01/07 04:19:59;;;;;;;36.08;26.37;;;;;;;6.69;100.00;98473.34;1761449;81;21095;-76
2023/01/07 04:22:27;;;;;;;38.08;25.52;;;;;;;6.65;100.00;98463.57;1761408;81;21007;-78
2023/01/07 04:24:53;;;;;;;26.45;18.40;;;;;;;6.65;100.00;98465.45;1761125;81;21479;-78
2023/01/07 04:27:20;;;;;;;27.50;18.55;;;;;;;6.62;100.00;98461.37;1761446;81;21062;-78
2023/01/07 04:29:47;;;;;;;28.27;18.25;;;;;;;6.59;100.00;98461.87;1761108;81;20977;-75
2023/01/07 04:32:14;;;;;;;22.42;17.52;;;;;;;6.56;100.00;98461.52;1761452;81;21885;-76
2023/01/07 04:34:41;;;;;;;25.70;17.37;;;;;;;6.49;100.00;98453.59;1761065;81;21007;-79
2023/01/07 04:37:08;;;;;;;30.37;20.80;;;;;;;6.46;100.00;98460.81;1761344;81;21097;-78
2023/01/07 04:39:35;;;;;;;30.17;21.95;;;;;;;6.42;100.00;98463.72;1761134;81;21014;-78
2023/01/07 04:42:02;;;;;;;25.25;16.52;;;;;;;6.35;100.00;98465.20;1761456;81;20994;-78
2023/01/07 04:44:29;;;;;;;25.00;18.42;;;;;;;6.30;100.00;98461.06;1761011;81;21143;-78
2023/01/07 04:46:56;;;;;;;29.18;20.45;;;;;;;6.21;100.00;98471.93;1761444;81;21507;-78
2023/01/07 04:49:23;;;;;;;26.95;18.98;;;;;;;6.18;100.00;98473.77;1761020;81;21355;-78
2023/01/07 04:51:50;;;;;;;38.45;23.40;;;;;;;6.14;100.00;98466.69;1761358;81;21420;-77
2023/01/07 04:54:16;;;;;;;28.07;17.50;;;;;;;6.12;100.00;98474.19;1759024;81;21069;-76
2023/01/07 04:56:44;;;;;;;32.93;23.32;;;;;;;6.12;100.00;98472.84;1748348;82;21606;-76
2023/01/07 04:59:11;;;;;;;32.35;22.37;;;;;;;6.09;100.00;98480.59;1779930;80;20986;-78
2023/01/07 05:01:38;;;;;;;30.23;20.17;;;;;;;6.11;100.00;98479.81;1780487;79;20996;-76
2023/01/07 05:04:05;;;;;;;24.18;17.12;;;;;;;6.14;100.00;98482.83;1761012;81;20983;-78
2023/01/07 05:06:32;;;;;;;31.20;21.35;;;;;;;6.12;100.00;98478.75;1761310;81;21007;-78
2023/01/07 05:08:59;;;;;;;32.55;22.15;;;;;;;6.08;100.00;98482.47;1761051;81;21050;-78
2023/01/07 05:11:25;;;;;;;31.05;19.20;;;;;;;6.08;100.00;98481.12;1761312;81;22099;-76
2023/01/07 05:13:52;;;;;;;29.25;18.35;;;;;;;6.11;100.00;98479.81;1758086;81;20997;-76
2023/01/07 05:16:19;;;;;;;27.75;19.75;;;;;;;6.09;100.00;98484.63;1745919;82;21033;-76
2023/01/07 05:18:46;;;;;;;39.42;22.02;;;;;;;6.05;100.00;98497.72;1768655;81;21067;-78
2023/01/07 05:21:13;;;;;;;49.27;32.53;;;;;;;6.05;100.00;98495.56;1745803;82;21166;-76
2023/01/07 05:23:40;;;;;;;50.38;34.90;;;;;;;6.06;100.00;98496.66;1768539;81;21059;-77
2023/01/07 05:26:07;;;;;;;39.40;27.75;;;;;;;6.06;100.00;98489.12;1745882;82;21009;-76
2023/01/07 05:28:34;;;;;;;40.67;28.47;;;;;;;6.06;100.00;98495.84;1768476;81;21528;-76
2023/01/07 05:31:01;;;;;;;32.63;22.20;;;;;;;6.05;100.00;98495.56;1745986;82;21004;-78
2023/01/07 05:33:28;;;;;;;62.65;40.98;;;;;;;6.06;100.00;98495.84;1768607;81;21853;-76
2023/01/07 05:35:55;;;;;;;53.73;35.25;;;;;;;5.98;100.00;98509.14;1768622;81;21064;-78
2023/01/07 05:38:22;;;;;;;58.23;38.28;;;;;;;5.93;100.00;98499.11;1768594;81;21558;-76
2023/01/07 05:40:49;;;;;;;50.73;34.23;;;;;;;5.94;100.00;98502.08;1745954;81;21052;-78
2023/01/07 05:43:16;;;;;;;45.83;32.78;;;;;;;5.95;100.00;98508.28;1768514;81;21067;-77
2023/01/07 05:45:44;;;;;;;72.08;47.80;;;;;;;5.96;100.00;98509.91;1768717;81;21174;-78
2023/01/07 05:48:12;;;;;;;75.67;49.75;;;;;;;5.98;100.00;98511.83;1768630;81;21071;-78
2023/01/07 05:50:39;;;;;;;56.58;35.55;;;;;;;6.00;100.00;98516.47;1768350;81;21544;-78
2023/01/07 05:53:09;;;;;;;57.85;37.35;;;;;;;6.03;100.00;98516.51;1746500;81;21033;-78
2023/01/07 05:55:37;;;;;;;50.83;33.45;;;;;;;5.97;100.00;98515.58;1765660;81;21099;-78
2023/01/07 05:58:05;;;;;;;48.75;32.48;;;;;;;5.96;100.00;98515.82;1733478;82;21614;-78
2023/01/07 06:00:33;;;;;;;57.58;38.67;;;;;;;5.91;100.00;98514.67;1733483;82;21027;-76
2023/01/07 06:03:00;;;;;;;60.05;39.42;;;;;;;5.90;100.00;98513.05;1733524;82;21078;-78
2023/01/07 06:05:27;;;;;;;56.00;38.25;;;;;;;5.88;100.00;98507.56;1732988;82;21142;-78
2023/01/07 06:07:54;;;;;;;51.33;35.60;;;;;;;5.84;100.00;98508.58;1733449;82;21079;-76
2023/01/07 06:10:20;;;;;;;58.05;36.15;;;;;;;5.85;100.00;98507.52;1733198;82;21884;-76
2023/01/07 06:12:47;;;;;;;62.25;35.75;;;;;;;5.85;100.00;98506.70;1733269;82;21206;-76
2023/01/07 06:15:14;;;;;;;53.00;35.85;;;;;;;5.84;100.00;98516.64;1733240;82;21055;-78
2023/01/07 06:17:41;;;;;;;82.80;60.80;;;;;;;5.80;100.00;98511.43;1733381;82;21003;-76
2023/01/07 06:20:10;;;;;;;93.10;66.45;;;;;;;5.74;100.00;98509.70;1733206;82;21079;-78
2023/01/07 06:22:37;;;;;;;72.25;50.40;;;;;;;5.68;100.00;98509.83;1733538;82;21457;-76
2023/01/07 06:25:05;;;;;;;46.58;31.80;;;;;;;5.66;100.00;98510.07;1733165;82;21015;-78
2023/01/07 06:27:32;;;;;;;38.80;27.02;;;;;;;5.62;100.00;98511.05;1733352;82;21012;-76
2023/01/07 06:29:59;;;;;;;44.20;28.45;;;;;;;5.57;100.00;98511.48;1733278;82;21008;-76
2023/01/07 06:32:29;;;;;;;39.67;27.75;;;;;;;5.56;100.00;98514.70;1733319;82;21604;-76
2023/01/07 06:34:55;;;;;;;38.63;24.65;;;;;;;5.54;100.00;98520.00;1732931;82;21924;-76
2023/01/07 06:37:22;;;;;;;39.42;24.12;;;;;;;5.50;100.00;98522.87;1733345;82;21067;-76
2023/01/07 06:39:49;;;;;;;34.63;22.22;;;;;;;5.47;100.00;98520.14;1733082;82;20964;-76
2023/01/07 06:42:16;;;;;;;32.65;21.37;;;;;;;5.44;100.00;98517.09;1733283;82;20995;-77
2023/01/07 06:44:44;;;;;;;49.30;26.07;;;;;;;5.37;100.00;98521.23;1732924;82;37187;-76
2023/01/07 06:47:11;;;;;;;45.20;28.20;;;;;;;5.33;100.00;98522.23;1733632;82;21209;-78
2023/01/07 06:49:38;;;;;;;36.83;25.20;;;;;;;5.31;100.00;98520.31;1733134;82;21011;-78
2023/01/07 06:52:05;;;;;;;42.35;28.73;;;;;;;5.28;100.00;98522.11;1733317;82;21180;-76
2023/01/07 06:54:32;;;;;;;47.20;28.85;;;;;;;5.22;100.00;98514.19;1723025;81;21467;-76
2023/01/07 06:56:59;;;;;;;57.15;36.08;;;;;;;5.17;100.00;98515.39;1739774;81;20993;-78
2023/01/07 06:59:25;;;;;;;47.38;27.07;;;;;;;5.10;100.00;98517.66;1733290;82;21745;-76
2023/01/07 07:01:52;;;;;;;42.67;25.10;;;;;;;5.03;100.00;98524.19;1733506;82;21060;-76
2023/01/07 07:04:19;;;;;;;48.30;25.52;;;;;;;4.84;100.00;98518.09;1733331;82;21456;-76
2023/01/07 07:06:46;;;;;;;57.58;29.95;;;;;;;4.77;100.00;98517.36;1733709;82;22036;-76
2023/01/07 07:09:13;;;;;;;65.35;30.72;;;;;;;4.67;100.00;98527.33;1733459;82;21074;-78
2023/01/07 07:11:40;;;;;;;42.55;21.55;;;;;;;4.63;100.00;98526.16;1733627;82;21815;-78
2023/01/07 07:14:08;;;;;;;47.83;21.65;;;;;;;4.59;100.00;98524.96;1733425;82;20996;-76
2023/01/07 07:16:35;;;;;;;52.10;24.12;;;;;;;4.58;100.00;98531.38;1733628;82;21083;-76
2023/01/07 07:19:02;;;;;;;60.20;27.87;;;;;;;4.61;100.00;98531.44;1733233;82;21034;-76
2023/01/07 07:21:29;;;;;;;93.07;42.25;;;;;;;4.58;100.00;98534.06;1733633;82;20992;-78
2023/01/07 07:23:55;;;;;;;109.27;55.12;;;;;;;4.60;100.00;98528.47;1733195;82;21866;-76
2023/01/07 07:26:22;;;;;;;94.07;48.38;;;;;;;4.63;100.00;98534.73;1733215;82;21012;-77
2023/01/07 07:28:49;;;;;;;111.08;54.25;;;;;;;4.65;100.00;98535.32;1733330;82;21048;-78
2023/01/07 07:31:18;;;;;;;106.52;50.63;;;;;;;4.64;100.00;98531.82;1733566;82;21079;-76
2023/01/07 07:33:45;;;;;;;70.20;39.70;;;;;;;4.67;100.00;98531.35;1733412;82;21079;-76
2023/01/07 07:36:11;;;;;;;76.82;35.25;;;;;;;4.76;100.00;98535.87;1733532;82;21859;-76
2023/01/07 07:38:38;;;;;;;79.87;35.40;;;;;;;4.78;100.00;98537.27;1733326;82;21063;-78
2023/01/07 07:41:05;;;;;;;86.30;41.65;;;;;;;4.73;100.00;98545.20;1733435;82;21457;-76
2023/01/07 07:43:34;;;;;;;76.15;37.55;;;;;;;4.76;100.00;98549.30;1733390;82;21061;-78
2023/01/07 07:46:02;;;;;;;56.02;27.62;;;;;;;4.81;100.00;98542.20;1733263;82;21403;-76
2023/01/07 07:48:28;;;;;;;47.08;21.87;;;;;;;4.89;100.00;98542.39;1733340;82;21907;-78
2023/01/07 07:50:55;;;;;;;43.50;21.40;;;;;;;4.96;100.00;98537.74;1733170;82;21015;-78
2023/01/07 07:53:22;;;;;;;50.63;23.07;;;;;;;4.99;100.00;98541.30;1740569;81;21004;-76
2023/01/07 07:55:49;;;;;;;57.58;23.27;;;;;;;5.03;100.00;98544.33;1746731;82;20975;-78
2023/01/07 07:58:16;;;;;;;58.15;26.68;;;;;;;5.02;100.00;98539.48;1780136;80;21007;-78
2023/01/07 08:00:43;;;;;;;53.75;20.57;;;;;;;5.06;100.00;98539.86;1779953;80;21333;-78
2023/01/07 08:03:10;;;;;;;44.10;19.95;;;;;;;5.10;100.00;98539.15;1760569;80;21019;-78
2023/01/07 08:05:41;;;;;;;34.65;18.07;;;;;;;5.12;100.00;98548.84;1755269;80;21460;-76
2023/01/07 08:08:10;;;;;;;37.53;16.93;;;;;;;5.17;100.00;98547.63;1752019;80;21040;-76
2023/01/07 08:10:37;;;;;;;36.33;19.40;;;;;;;5.21;100.00;98536.20;1712252;80;21024;-78
2023/01/07 08:13:04;;;;;;;34.15;18.90;;;;;;;5.32;100.00;98544.79;1758191;80;21901;-78
2023/01/07 08:15:31;;;;;;;48.38;20.55;;;;;;;5.44;100.00;98542.63;1749731;81;21019;-78
2023/01/07 08:17:59;;;;;;;34.30;17.35;;;;;;;5.48;100.00;98540.59;1737451;80;21059;-76
2023/01/07 08:20:27;;;;;;;32.95;18.57;;;;;;;5.58;100.00;98542.69;1784088;80;20993;-76
2023/01/07 08:22:54;;;;;;;39.98;18.17;;;;;;;5.74;100.00;98536.60;1762226;80;21023;-79
2023/01/07 08:25:21;;;;;;;35.05;16.80;;;;;;;5.80;100.00;98531.59;1792065;80;21895;-76
2023/01/07 08:27:47;;;;;;;36.42;22.15;;;;;;;5.84;100.00;98526.58;1792776;80;21167;-78
2023/01/07 08:30:16;;;;;;;45.28;25.82;;;;;;;5.92;100.00;98529.75;1767975;80;21045;-78
2023/01/07 08:32:42;;;;;;;34.43;19.90;;;;;;;6.00;100.00;98531.80;1770961;80;21542;-78
2023/01/07 08:35:10;;;;;;;39.53;20.52;;;;;;;5.95;100.00;98531.15;1731977;80;21026;-78
2023/01/07 08:37:37;;;;;;;30.77;16.15;;;;;;;5.94;100.00;98526.83;1752545;80;21560;-78
2023/01/07 08:40:07;;;;;;;29.00;15.90;;;;;;;6.03;100.00;98524.58;1750645;80;21011;-76
2023/01/07 08:42:36;;;;;;;24.70;14.00;;;;;;;6.04;100.00;98524.34;1731058;82;21011;-76
2023/01/07 08:45:03;;;;;;;;;;;;;;;6.07;100.00;98519.03;1733415;82;21067;-79
2023/01/07 08:47:30;;;;;;;36.65;19.73;;;;;;;6.09;100.00;98514.22;1731021;82;20572;-76
2023/01/07 08:49:57;;;;;;;32.88;18.35;;;;;;;6.04;100.00;98518.95;1731297;80;21020;-78
2023/01/07 08:52:24;;;;;;;39.13;18.02;;;;;;;6.05;100.00;98518.42;1775630;80;20995;-76
2023/01/07 08:54:51;;;;;;;36.48;21.40;;;;;;;6.00;100.00;98520.50;1740190;80;21005;-76
2023/01/07 08:57:18;;;;;;;29.52;17.48;;;;;;;5.99;100.00;98523.44;1730890;81;20993;-78
2023/01/07 08:59:45;;;;;;;25.97;17.50;;;;;;;6.05;100.00;98523.81;1730775;82;21075;-76
2023/01/07 09:02:13;;;;;;;66.15;39.20;;;;;;;6.06;100.00;98525.44;1741548;80;21102;-78
2023/01/07 09:04:40;;;;;;;67.75;41.10;;;;;;;6.13;100.00;98525.59;1767643;80;20996;-76
2023/01/07 09:07:07;;;;;;;67.58;35.05;;;;;;;6.14;100.00;98531.80;1792752;80;21000;-78
2023/01/07 09:09:35;;;;;;;79.07;40.23;;;;;;;6.20;100.00;98526.28;1781085;80;21000;-78
2023/01/07 09:12:04;;;;;;;97.90;53.90;;;;;;;6.25;100.00;98528.27;1786635;80;20985;-76
2023/01/07 09:14:31;;;;;;;76.17;40.75;;;;;;;6.25;100.00;98526.92;1741797;81;21090;-76
2023/01/07 09:16:57;;;;;;;64.90;37.95;;;;;;;6.26;100.00;98527.21;1757608;80;21402;-78
2023/01/07 09:19:24;;;;;;;102.07;54.38;;;;;;;6.31;100.00;98524.59;1768142;80;21031;-78
2023/01/07 09:21:51;;;;;;;75.00;42.10;;;;;;;6.30;100.00;98527.53;1737919;80;21513;-76
2023/01/07 09:24:18;;;;;;;54.48;30.92;;;;;;;6.31;100.00;98527.82;1736900;80;21013;-78
2023/01/07 09:26:45;;;;;;;57.58;32.45;;;;;;;6.36;100.00;98526.05;1758156;80;21869;-76
2023/01/07 09:29:12;;;;;;;77.67;47.17;;;;;;;6.33;100.00;98519.81;1792599;80;20945;-78
2023/01/07 09:31:39;;;;;;;90.53;55.58;;;;;;;6.32;100.00;98523.54;1792418;80;20985;-76
2023/01/07 09:34:07;;;;;;;77.10;45.83;;;;;;;6.40;100.00;98522.34;1791660;80;20969;-78
2023/01/07 09:36:34;;;;;;;58.28;37.65;;;;;;;6.48;100.00;98523.30;1761228;81;21007;-78
2023/01/07 09:39:01;;;;;;;60.60;34.23;;;;;;;6.58;100.00;98523.52;1761176;81;21168;-78
2023/01/07 09:41:49;;;;;;;52.15;31.65;;;;;;;6.63;100.00;98530.86;1761038;81;21066;-78
2023/01/07 09:44:53;;;;;;;57.05;33.67;;;;;;;6.70;100.00;98522.11;1761159;81;21079;-76
2023/01/07 09:47:22;;;;;;;55.85;31.48;;;;;;;6.69;100.00;98524.52;1760969;81;20988;-78
2023/01/07 09:49:51;;;;;;;60.12;35.55;;;;;;;6.71;100.00;98517.00;1699904;81;21037;-78
2023/01/07 09:52:23;;;;;;;61.37;33.35;;;;;;;6.77;100.00;98523.59;1768191;80;21401;-78
2023/01/07 09:54:52;;;;;;;60.70;34.08;;;;;;;6.86;100.00;98521.84;1753133;81;21008;-77
2023/01/07 09:57:19;;;;;;;58.52;33.78;;;;;;;6.92;100.00;98521.70;1753920;80;21038;-76
2023/01/07 09:59:46;;;;;;;55.52;34.70;;;;;;;7.05;100.00;98521.36;1744638;81;21499;-76
2023/01/07 10:02:34;;;;;;;58.98;32.38;;;;;;;7.15;100.00;98508.58;1749410;81;21070;-78
2023/01/07 10:05:36;;;;;;;58.52;34.53;;;;;;;7.27;100.00;98512.02;1759974;80;21136;-76
2023/01/07 10:08:14;;;;;;;60.40;34.60;;;;;;;7.34;100.00;98504.55;1751470;80;22113;-77
2023/01/07 10:10:58;;;;;;;66.33;34.63;;;;;;;7.38;100.00;98503.55;1731159;81;21078;-78
2023/01/07 10:13:54;;;;;;;66.25;35.83;;;;;;;7.35;100.00;98502.17;1746704;81;21059;-78
2023/01/07 10:16:42;;;;;;;60.45;33.73;;;;;;;7.25;100.00;98497.95;1734757;81;21011;-78
2023/01/07 10:19:23;;;;;;;63.73;35.43;;;;;;;7.19;100.00;98500.30;1727486;82;21031;-76
2023/01/07 10:21:56;;;;;;;59.03;32.45;;;;;;;7.16;100.00;98499.95;1730661;82;21063;-76
2023/01/07 10:24:41;;;;;;;61.68;35.33;;;;;;;7.19;100.00;98503.53;1730487;82;21129;-78
2023/01/07 10:27:14;;;;;;;58.55;31.95;;;;;;;7.29;100.00;98502.33;1730979;82;21046;-78
2023/01/07 10:29:50;;;;;;;56.95;33.33;;;;;;;7.35;100.00;98498.66;1730941;81;21560;-78
2023/01/07 10:32:20;;;;;;;70.08;40.98;;;;;;;7.44;100.00;98490.97;1722141;81;21067;-76
2023/01/07 10:34:50;;;;;;;60.78;35.30;;;;;;;7.52;100.00;98482.42;1730470;81;21031;-78
2023/01/07 10:37:32;;;;;;;69.25;41.77;;;;;;;7.61;100.00;98475.56;1702166;82;20996;-78
2023/01/07 10:40:40;;;;;;;72.85;45.52;;;;;;;7.70;100.00;98470.02;1730908;82;21059;-78
2023/01/07 10:43:26;;;;;;;;;;;;;;;7.78;100.00;98466.89;1733072;82;21031;-76
2023/01/07 10:46:27;;;;;;;58.98;32.95;;;;;;;7.86;100.00;98459.70;1758603;81;20968;-78
2023/01/07 10:49:21;;;;;;;63.33;34.45;;;;;;;7.89;100.00;98460.55;1730749;82;21448;-78
2023/01/07 10:52:21;;;;;;;62.88;38.70;;;;;;;8.04;100.00;98453.70;1739590;80;21047;-79
2023/01/07 10:55:05;;;;;;;68.92;45.70;;;;;;;8.04;100.00;98453.70;1778054;80;21068;-79
2023/01/07 10:57:32;;;;;;;104.15;64.85;;;;;;;8.13;100.00;98451.65;1731939;81;21333;-76
2023/01/07 11:00:03;;;;;;;90.97;55.85;;;;;;;8.24;100.00;98445.00;1746398;80;21536;-79
2023/01/07 11:02:30;;;;;;;54.83;29.87;;;;;;;8.39;100.00;98444.66;1775004;80;21477;-76
2023/01/07 11:05:00;;;;;;;40.17;26.30;;;;;;;8.39;100.00;98444.66;1767792;81;21429;-76
2023/01/07 11:07:43;;;;;;;46.23;28.92;;;;;;;8.44;100.00;98434.43;1761828;79;21372;-76
2023/01/07 11:10:16;;;;;;;36.28;22.48;;;;;;;8.44;100.00;98434.43;1757856;81;21098;-78
2023/01/07 11:12:53;;;;;;;40.08;23.92;;;;;;;8.56;100.00;98451.30;1730467;80;21580;-78
2023/01/07 11:15:35;;;;;;;38.98;26.35;;;;;;;8.64;100.00;98439.22;1779906;80;21031;-76
2023/01/07 11:18:20;;;;;;;39.75;25.40;;;;;;;8.71;100.00;98434.39;1760301;80;22004;-76
2023/01/07 11:20:50;;;;;;;57.93;29.70;;;;;;;8.77;100.00;98432.03;1749161;82;21449;-76
2023/01/07 11:23:35;;;;;;;47.15;25.70;;;;;;;8.76;100.00;98433.91;1748986;82;20979;-76
2023/01/07 11:26:25;;;;;;;47.58;27.90;;;;;;;8.73;100.00;98431.73;1730665;82;20996;-76
2023/01/07 11:29:15;;;;;;;45.48;30.15;;;;;;;8.70;100.00;98419.27;1730618;82;21039;-79
2023/01/07 11:31:57;;;;;;;67.35;35.20;;;;;;;8.64;100.00;98421.66;1737114;80;20992;-78
2023/01/07 11:34:34;;;;;;;52.60;29.92;;;;;;;8.62;100.00;98421.89;1739745;80;21020;-76
2023/01/07 11:37:02;;;;;;;37.50;23.05;;;;;;;8.64;100.00;98421.13;1730742;82;20997;-79
2023/01/07 11:39:33;;;;;;;46.65;26.48;;;;;;;8.64;100.00;98413.02;1739589;80;20993;-79
2023/01/07 11:45:27;;;;;;;90.40;39.03;;;;;;;8.55;100.00;98401.59;1730893;82;21033;-78
2023/01/07 11:48:05;;;;;;;63.13;29.25;;;;;;;8.46;100.00;98398.02;1750910;80;20997;-76